createdAt,value
2018-09-12T00:01:31.524Z,100437.74
2018-09-12T00:04:00.472Z,100434.63
2018-09-12T00:06:29.431Z,100427.72
2018-09-12T00:08:58.461Z,100427.40
2018-09-12T00:11:27.415Z,100427.20
2018-09-12T00:13:56.379Z,100428.44
2018-09-12T00:16:25.322Z,100436.66
2018-09-12T00:18:54.302Z,100428.11
2018-09-12T00:21:23.253Z,100430.91
2018-09-12T00:23:52.350Z,100426.55
2018-09-12T00:26:21.430Z,100424.48
2018-09-12T00:28:50.400Z,100422.60
2018-09-12T00:31:19.416Z,100421.68
2018-09-12T00:33:48.583Z,100421.45
2018-09-12T00:36:17.557Z,100425.64
2018-09-12T00:38:46.500Z,100420.84
2018-09-12T00:41:15.507Z,100425.66
2018-09-12T00:43:44.459Z,100429.94
2018-09-12T00:46:13.461Z,100431.33
2018-09-12T00:48:42.453Z,100428.48
2018-09-12T00:51:11.396Z,100433.52
2018-09-12T00:53:40.356Z,100429.12
2018-09-12T00:56:09.355Z,100432.56
2018-09-12T00:58:38.331Z,100430.37
2018-09-12T01:01:07.619Z,100428.05
2018-09-12T01:03:36.619Z,100425.69
2018-09-12T01:06:05.613Z,100430.59
2018-09-12T01:08:34.575Z,100425.98
2018-09-12T01:11:03.494Z,100428.28
2018-09-12T01:13:32.718Z,100419.29
2018-09-12T01:16:01.678Z,100414.91
2018-09-12T01:18:30.635Z,100420.25
2018-09-12T01:20:59.578Z,100420.89
2018-09-12T01:23:28.502Z,100420.25
2018-09-12T01:25:57.466Z,100418.06
2018-09-12T01:28:26.425Z,100413.05
2018-09-12T01:30:55.410Z,100409.25
2018-09-12T01:33:24.368Z,100406.24
2018-09-12T01:35:53.411Z,100410.92
2018-09-12T01:38:22.367Z,100409.78
2018-09-12T01:40:51.357Z,100411.02
2018-09-12T01:43:20.323Z,100412.91
2018-09-12T01:45:49.336Z,100411.09
2018-09-12T01:48:18.319Z,100413.61
2018-09-12T01:50:47.340Z,100412.36
2018-09-12T01:53:16.308Z,100419.80
2018-09-12T01:55:45.274Z,100419.80
2018-09-12T01:58:14.236Z,100422.52
2018-09-12T02:00:43.419Z,100421.16
2018-09-12T02:03:12.402Z,100421.78
2018-09-12T02:05:41.373Z,100425.73
2018-09-12T02:08:10.382Z,100428.04
2018-09-12T02:10:39.375Z,100424.06
2018-09-12T02:13:08.340Z,100436.07
2018-09-12T02:15:37.353Z,100427.80
2018-09-12T02:18:06.452Z,100433.87
2018-09-12T02:20:35.576Z,100433.42
2018-09-12T02:23:04.661Z,100435.11
2018-09-12T02:25:33.651Z,100434.38
2018-09-12T02:28:02.587Z,100435.45
2018-09-12T02:30:31.647Z,100435.62
2018-09-12T02:33:00.601Z,100431.78
2018-09-12T02:35:29.727Z,100433.25
2018-09-12T02:37:58.688Z,100427.41
2018-09-12T02:40:27.761Z,100427.84
2018-09-12T02:42:56.767Z,100424.83
2018-09-12T02:45:25.790Z,100430.81
2018-09-12T02:47:54.829Z,100433.54
2018-09-12T02:50:23.769Z,100432.77
2018-09-12T02:52:52.761Z,100431.31
2018-09-12T02:55:21.812Z,100431.64
2018-09-12T02:57:50.782Z,100433.92
2018-09-12T03:00:19.754Z,100437.89
2018-09-12T03:02:48.760Z,100439.14
2018-09-12T03:05:17.729Z,100441.34
2018-09-12T03:07:46.743Z,100447.50
2018-09-12T03:10:15.798Z,100446.77
2018-09-12T03:12:44.767Z,100449.78
2018-09-12T03:15:13.750Z,100451.45
2018-09-12T03:17:42.763Z,100446.85
2018-09-12T03:20:11.727Z,100455.08
2018-09-12T03:22:40.765Z,100446.09
2018-09-12T03:25:09.814Z,100452.37
2018-09-12T03:27:38.955Z,100452.48
2018-09-12T03:30:08.328Z,100460.13
2018-09-12T03:32:37.277Z,100459.41
2018-09-12T03:35:06.440Z,100413.80
2018-09-12T03:37:35.460Z,100461.72
2018-09-12T03:40:04.428Z,100464.20
2018-09-12T03:42:33.365Z,100468.16
2018-09-12T03:45:02.463Z,100468.98
2018-09-12T03:47:31.427Z,100472.74
2018-09-12T03:50:00.369Z,100465.87
2018-09-12T03:52:29.381Z,100466.59
2018-09-12T03:54:58.430Z,100465.88
2018-09-12T03:57:27.393Z,100471.44
2018-09-12T03:59:56.419Z,100480.63
2018-09-12T04:02:25.391Z,100475.52
2018-09-12T04:04:54.640Z,100486.39
2018-09-12T04:07:23.728Z,100487.34
2018-09-12T04:09:52.688Z,100490.70
2018-09-12T04:12:21.701Z,100497.17
2018-09-12T04:14:50.670Z,100491.70
2018-09-12T04:17:19.617Z,100501.08
2018-09-12T04:19:48.596Z,100501.98
2018-09-12T04:22:17.539Z,100500.22
2018-09-12T04:24:46.487Z,100504.81
2018-09-12T04:27:15.432Z,100514.91
2018-09-12T04:29:44.471Z,100508.75
2018-09-12T04:32:13.423Z,100511.86
2018-09-12T04:34:42.350Z,100504.82
2018-09-12T04:37:11.343Z,100514.03
2018-09-12T04:39:40.287Z,100520.72
2018-09-12T04:42:09.306Z,100523.76
2018-09-12T04:44:38.357Z,100526.41
2018-09-12T04:47:07.522Z,100523.58
2018-09-12T04:49:36.491Z,100517.89
2018-09-12T04:52:05.431Z,100508.58
2018-09-12T04:54:34.388Z,100513.73
2018-09-12T04:57:03.319Z,100517.69
2018-09-12T04:59:32.357Z,100521.36
2018-09-12T05:02:01.319Z,100519.32
2018-09-12T05:04:30.291Z,100522.45
2018-09-12T05:06:59.243Z,100514.33
2018-09-12T05:09:28.246Z,100509.88
2018-09-12T05:11:57.166Z,100510.09
2018-09-12T05:14:26.123Z,100512.41
2018-09-12T05:16:55.128Z,100520.28
2018-09-12T05:19:24.084Z,100523.39
2018-09-12T05:21:53.084Z,100530.25
2018-09-12T05:24:22.025Z,100526.97
2018-09-12T05:26:51.182Z,100526.50
2018-09-12T05:29:20.129Z,100528.05
2018-09-12T05:31:49.134Z,100524.89
2018-09-12T05:34:18.256Z,100522.44
2018-09-12T05:36:47.203Z,100527.38
2018-09-12T05:39:16.272Z,100523.99
2018-09-12T05:41:45.197Z,100528.79
2018-09-12T05:44:14.281Z,100528.06
2018-09-12T05:46:43.284Z,100530.80
2018-09-12T05:49:12.296Z,100539.67
2018-09-12T05:51:41.233Z,100533.13
2018-09-12T05:54:10.248Z,100529.09
2018-09-12T05:56:39.227Z,100526.00
2018-09-12T05:59:08.270Z,100526.44
2018-09-12T06:01:37.287Z,100531.68
2018-09-12T06:04:06.306Z,100527.12
2018-09-12T06:06:35.459Z,100525.19
2018-09-12T06:09:04.939Z,100528.98
2018-09-12T06:11:33.923Z,100534.38
2018-09-12T06:14:02.969Z,100544.09
2018-09-12T06:16:31.969Z,100546.34
2018-09-12T06:19:00.970Z,100543.56
2018-09-12T06:21:29.968Z,100553.70
2018-09-12T06:23:58.965Z,100547.16
2018-09-12T06:26:27.927Z,100549.39
2018-09-12T06:28:57.019Z,100556.53
2018-09-12T06:31:26.089Z,100556.25
2018-09-12T06:33:55.120Z,100552.59
2018-09-12T06:36:24.095Z,100544.83
2018-09-12T06:38:53.100Z,100551.39
2018-09-12T06:41:22.312Z,100523.00
2018-09-12T06:43:51.291Z,100550.70
2018-09-12T06:46:20.282Z,100540.75
2018-09-12T06:48:49.221Z,100548.86
2018-09-12T06:51:18.309Z,100547.28
2018-09-12T06:53:47.309Z,100558.96
2018-09-12T06:56:16.370Z,100564.29
2018-09-12T06:58:45.350Z,100571.78
2018-09-12T07:01:14.381Z,100564.20
2018-09-12T07:03:43.379Z,100556.23
2018-09-12T07:06:12.420Z,100557.69
2018-09-12T07:08:41.380Z,100555.12
2018-09-12T07:11:10.353Z,100559.97
2018-09-12T07:13:39.420Z,100559.05
2018-09-12T07:16:08.395Z,100565.22
2018-09-12T07:18:37.401Z,100568.92
2018-09-12T07:21:06.474Z,100569.84
2018-09-12T07:23:35.479Z,100569.98
2018-09-12T07:26:04.508Z,100575.92
2018-09-12T07:28:33.528Z,100574.03
2018-09-12T07:31:02.505Z,100578.27
2018-09-12T07:33:31.450Z,100580.30
2018-09-12T07:36:00.473Z,100580.69
2018-09-12T07:38:29.473Z,100580.61
2018-09-12T07:40:58.501Z,100579.55
2018-09-12T07:43:27.554Z,100575.98
2018-09-12T07:45:56.539Z,100580.70
2018-09-12T07:48:25.569Z,100586.00
2018-09-12T07:50:54.589Z,100581.55
2018-09-12T07:53:23.752Z,100573.44
2018-09-12T07:55:52.813Z,100578.80
2018-09-12T07:58:21.920Z,100574.61
2018-09-12T08:00:50.951Z,100580.38
2018-09-12T08:03:19.970Z,100569.98
2018-09-12T08:05:48.983Z,100562.78
2018-09-12T08:08:17.961Z,100570.16
2018-09-12T08:10:46.930Z,100567.36
2018-09-12T08:13:15.907Z,100565.34
2018-09-12T08:15:44.891Z,100572.20
2018-09-12T08:18:13.936Z,100571.12
2018-09-12T08:20:43.021Z,100570.78
2018-09-12T08:23:12.038Z,100569.09
2018-09-12T08:25:41.016Z,100568.44
2018-09-12T08:28:09.995Z,100569.03
2018-09-12T08:30:39.011Z,100570.73
2018-09-12T08:33:07.986Z,100571.91
2018-09-12T08:35:36.987Z,100569.16
2018-09-12T08:38:06.580Z,100573.55
2018-09-12T08:40:35.584Z,100580.14
2018-09-12T08:43:04.665Z,100585.84
2018-09-12T08:45:33.684Z,100605.03
2018-09-12T08:48:02.756Z,100623.63
2018-09-12T08:50:31.745Z,100621.41
2018-09-12T08:53:00.799Z,100628.98
2018-09-12T08:55:29.701Z,100624.88
2018-09-12T08:57:58.662Z,100623.29
2018-09-12T09:00:33.799Z,100613.55
2018-09-12T09:03:03.722Z,100618.11
2018-09-12T09:05:32.797Z,100625.25
2018-09-12T09:08:01.754Z,100614.18
2018-09-12T09:10:30.838Z,100613.86
2018-09-12T09:12:59.863Z,100614.00
2018-09-12T09:15:29.090Z,100615.83
2018-09-12T09:17:58.200Z,100610.05
2018-09-12T09:20:27.219Z,100603.19
2018-09-12T09:22:56.196Z,100607.38
2018-09-12T09:25:25.258Z,100603.54
2018-09-12T09:27:54.383Z,100595.28
2018-09-12T09:30:26.340Z,100595.63
2018-09-12T09:32:55.352Z,100602.24
2018-09-12T09:35:24.405Z,100596.58
2018-09-12T09:37:53.335Z,100593.30
2018-09-12T09:40:22.306Z,100604.38
2018-09-12T09:42:51.303Z,100603.99
2018-09-12T09:45:20.264Z,100607.83
2018-09-12T09:47:49.557Z,100605.69
2018-09-12T09:50:18.599Z,100610.86
2018-09-12T09:52:47.528Z,100611.75
2018-09-12T09:55:16.509Z,100616.16
2018-09-12T09:57:45.574Z,100612.31
2018-09-12T10:00:19.688Z,100617.16
2018-09-12T10:02:53.706Z,100623.16
2018-09-12T10:06:28.349Z,100630.50
2018-09-12T10:08:58.837Z,100639.16
2018-09-12T10:11:27.793Z,100641.89
2018-09-12T10:13:56.728Z,100640.06
2018-09-12T10:16:25.887Z,100641.58
2018-09-12T10:18:54.841Z,100634.59
2018-09-12T10:21:23.862Z,100625.56
2018-09-12T10:23:52.802Z,100620.88
2018-09-12T10:26:21.817Z,100620.56
2018-09-12T10:28:50.864Z,100611.06
2018-09-12T10:31:19.824Z,100602.70
2018-09-12T10:33:48.787Z,100596.12
2018-09-12T10:36:17.762Z,100599.64
2018-09-12T10:38:46.726Z,100601.12
2018-09-12T10:41:15.778Z,100592.44
2018-09-12T10:43:44.784Z,100588.45
2018-09-12T10:46:13.751Z,100586.58
2018-09-12T10:48:42.692Z,100582.23
2018-09-12T10:51:11.673Z,100577.27
2018-09-12T10:53:40.647Z,100568.53
2018-09-12T10:56:09.749Z,100571.94
2018-09-12T10:58:38.810Z,100570.90
2018-09-12T11:01:07.890Z,100575.48
2018-09-12T11:03:36.845Z,100572.68
2018-09-12T11:06:05.955Z,100575.34
2018-09-12T11:08:34.940Z,100571.27
2018-09-12T11:11:03.894Z,100563.22
2018-09-12T11:13:33.127Z,100564.91
2018-09-12T11:16:02.140Z,100562.07
2018-09-12T11:18:31.104Z,100568.67
2018-09-12T11:21:00.075Z,100567.48
2018-09-12T11:23:29.037Z,100563.66
2018-09-12T11:25:58.164Z,100558.50
2018-09-12T11:28:27.181Z,100555.25
2018-09-12T11:30:56.169Z,100550.71
2018-09-12T11:33:25.111Z,100542.62
2018-09-12T11:35:54.082Z,100540.99
2018-09-12T11:38:23.041Z,100546.40
2018-09-12T11:40:52.075Z,100545.39
2018-09-12T11:43:21.077Z,100553.22
2018-09-12T11:45:50.164Z,100559.26
2018-09-12T11:48:19.124Z,100563.64
2018-09-12T11:50:48.048Z,100561.59
2018-09-12T11:53:17.083Z,100551.09
2018-09-12T11:55:46.043Z,100541.98
2018-09-12T11:58:14.996Z,100536.32
2018-09-12T12:00:43.972Z,100538.12
2018-09-12T12:03:12.931Z,100532.06
2018-09-12T12:05:41.895Z,100532.77
2018-09-12T12:08:10.992Z,100529.59
2018-09-12T12:10:40.005Z,100522.55
2018-09-12T12:13:08.989Z,100516.86
2018-09-12T12:15:37.970Z,100505.49
2018-09-12T12:18:06.938Z,100504.72
2018-09-12T12:20:35.886Z,100503.94
2018-09-12T12:23:04.832Z,100502.95
2018-09-12T12:25:33.831Z,100504.48
2018-09-12T12:28:02.852Z,100489.95
2018-09-12T12:30:31.957Z,100497.94
2018-09-12T12:33:00.903Z,100492.95
2018-09-12T12:35:29.946Z,100486.19
2018-09-12T12:37:58.916Z,100475.99
2018-09-12T12:40:27.865Z,100479.03
2018-09-12T12:42:56.864Z,100475.75
2018-09-12T12:45:25.854Z,100476.38
2018-09-12T12:47:54.989Z,100475.99
2018-09-12T12:50:23.948Z,100477.77
2018-09-12T12:52:52.913Z,100469.47
2018-09-12T12:55:21.977Z,100469.25
2018-09-12T12:57:50.923Z,100477.51
2018-09-12T13:00:19.879Z,100476.50
2018-09-12T13:02:48.806Z,100472.36
2018-09-12T13:05:17.761Z,100472.82
2018-09-12T13:07:46.761Z,100469.56
2018-09-12T13:10:15.810Z,100476.22
2018-09-12T13:12:44.752Z,100468.86
2018-09-12T13:15:13.714Z,100460.34
2018-09-12T13:17:42.667Z,100469.64
2018-09-12T13:20:11.599Z,100463.52
2018-09-12T13:22:40.586Z,100453.22
2018-09-12T13:25:09.606Z,100457.89
2018-09-12T13:27:38.706Z,100451.47
2018-09-12T13:30:08.102Z,100451.17
2018-09-12T13:32:37.260Z,100451.48
2018-09-12T13:35:06.356Z,100453.88
2018-09-12T13:37:35.319Z,100451.84
2018-09-12T13:40:04.283Z,100451.29
2018-09-12T13:42:33.252Z,100451.78
2018-09-12T13:45:02.243Z,100447.37
2018-09-12T13:47:31.207Z,100452.07
2018-09-12T13:50:00.264Z,100449.36
2018-09-12T13:52:29.376Z,100448.03
2018-09-12T13:54:58.341Z,100444.30
2018-09-12T13:57:27.299Z,100443.73
2018-09-12T13:59:56.310Z,100447.11
2018-09-12T14:02:25.260Z,100444.32
2018-09-12T14:04:54.228Z,100446.55
2018-09-12T14:07:23.394Z,100444.37
2018-09-12T14:09:52.337Z,100438.85
2018-09-12T14:12:21.298Z,100433.29
2018-09-12T14:14:50.278Z,100427.36
2018-09-12T14:17:19.352Z,100428.13
2018-09-12T14:19:48.376Z,100425.41
2018-09-12T14:22:17.385Z,100425.38
2018-09-12T14:24:46.417Z,100427.17
2018-09-12T14:27:15.432Z,100419.53
2018-09-12T14:29:44.493Z,100412.90
2018-09-12T14:32:13.484Z,100409.87
2018-09-12T14:34:42.399Z,100398.55
2018-09-12T14:37:11.490Z,100401.24
2018-09-12T14:39:40.434Z,100397.59
2018-09-12T14:42:09.435Z,100395.72
2018-09-12T14:44:38.369Z,100399.05
2018-09-12T14:47:07.456Z,100399.03
2018-09-12T14:49:36.424Z,100399.59
2018-09-12T14:52:05.519Z,100397.84
2018-09-12T14:54:34.536Z,100395.56
2018-09-12T14:57:03.516Z,100389.98
2018-09-12T14:59:32.534Z,100395.03
2018-09-12T15:02:01.561Z,100388.87
2018-09-12T15:04:30.529Z,100391.27
2018-09-12T15:06:59.541Z,100390.06
2018-09-12T15:09:28.596Z,100385.83
2018-09-12T15:11:57.625Z,100378.17
2018-09-12T15:14:26.740Z,100378.34
2018-09-12T15:16:55.708Z,100376.81
2018-09-12T15:19:24.718Z,100379.20
2018-09-12T15:21:53.713Z,100381.44
2018-09-12T15:24:22.680Z,100380.23
2018-09-12T15:26:51.718Z,100381.89
2018-09-12T15:29:20.693Z,100376.82
2018-09-12T15:31:49.701Z,100374.27
2018-09-12T15:34:18.681Z,100375.30
2018-09-12T15:36:47.704Z,100371.88
2018-09-12T15:39:16.707Z,100359.91
2018-09-12T15:41:45.764Z,100367.45
2018-09-12T15:44:14.813Z,100368.20
2018-09-12T15:46:43.885Z,100369.21
2018-09-12T15:49:12.913Z,100370.83
2018-09-12T15:51:41.931Z,100366.61
2018-09-12T15:54:11.029Z,100369.94
2018-09-12T15:56:40.058Z,100358.50
2018-09-12T15:59:09.088Z,100362.25
2018-09-12T16:01:38.045Z,100359.98
2018-09-12T16:04:07.098Z,100354.09
2018-09-12T16:06:36.079Z,100356.90
2018-09-12T16:09:07.318Z,100362.20
2018-09-12T16:11:36.321Z,100354.79
2018-09-12T16:14:05.264Z,100348.22
2018-09-12T16:16:34.286Z,100346.36
2018-09-12T16:19:03.330Z,100350.27
2018-09-12T16:21:32.371Z,100344.11
2018-09-12T16:24:01.344Z,100348.57
2018-09-12T16:26:30.319Z,100339.97
2018-09-12T16:28:59.327Z,100342.61
2018-09-12T16:31:28.448Z,100337.22
2018-09-12T16:33:57.433Z,100334.23
2018-09-12T16:36:26.933Z,100337.61
2018-09-12T16:38:56.034Z,100338.52
2018-09-12T16:41:25.088Z,100341.09
2018-09-12T16:43:54.739Z,100347.84
2018-09-12T16:46:23.710Z,100349.67
2018-09-12T16:48:52.689Z,100338.02
2018-09-12T16:51:21.809Z,100338.72
2018-09-12T16:53:50.802Z,100340.38
2018-09-12T16:56:19.801Z,100346.09
2018-09-12T16:58:48.827Z,100350.72
2018-09-12T17:01:17.868Z,100353.27
2018-09-12T17:03:46.822Z,100363.27
2018-09-12T17:06:15.850Z,100358.54
2018-09-12T17:08:44.769Z,100359.55
2018-09-12T17:11:13.723Z,100360.18
2018-09-12T17:13:42.737Z,100358.84
2018-09-12T17:16:11.762Z,100360.52
2018-09-12T17:18:40.772Z,100358.35
2018-09-12T17:21:09.737Z,100353.99
2018-09-12T17:23:38.864Z,100356.47
2018-09-12T17:26:07.849Z,100356.25
2018-09-12T17:28:36.831Z,100360.52
2018-09-12T17:31:05.869Z,100355.95
2018-09-12T17:33:34.828Z,100360.66
2018-09-12T17:36:03.913Z,100369.67
2018-09-12T17:38:32.911Z,100372.61
2018-09-12T17:41:01.953Z,100373.05
2018-09-12T17:43:31.019Z,100373.34
2018-09-12T17:46:00.105Z,100387.45
2018-09-12T17:48:29.155Z,100379.74
2018-09-12T17:50:58.132Z,100388.80
2018-09-12T17:53:27.084Z,100387.50
2018-09-12T17:55:56.032Z,100385.67
2018-09-12T17:58:25.104Z,100384.95
2018-09-12T18:00:54.164Z,100385.91
2018-09-12T18:03:23.203Z,100386.06
2018-09-12T18:05:52.223Z,100385.28
2018-09-12T18:08:21.166Z,100388.50
2018-09-12T18:10:50.274Z,100390.50
2018-09-12T18:13:19.220Z,100384.12
2018-09-12T18:15:48.209Z,100388.14
2018-09-12T18:18:17.180Z,100383.34
2018-09-12T18:20:46.273Z,100385.89
2018-09-12T18:23:15.250Z,100383.70
2018-09-12T18:25:44.187Z,100379.15
2018-09-12T18:28:13.204Z,100384.84
2018-09-12T18:30:42.360Z,100383.80
2018-09-12T18:33:11.312Z,100385.22
2018-09-12T18:35:40.369Z,100388.20
2018-09-12T18:38:09.362Z,100391.08
2018-09-12T18:40:38.329Z,100381.78
2018-09-12T18:43:07.467Z,100384.70
2018-09-12T18:45:36.423Z,100387.89
2018-09-12T18:48:05.554Z,100391.45
2018-09-12T18:50:34.622Z,100385.05
2018-09-12T18:53:03.609Z,100391.34
2018-09-12T18:55:32.681Z,100395.23
2018-09-12T18:58:02.608Z,100388.58
2018-09-12T19:00:31.751Z,100388.61
2018-09-12T19:03:00.930Z,100389.28
2018-09-12T19:05:30.320Z,100392.90
2018-09-12T19:07:59.650Z,100393.11
2018-09-12T19:10:28.660Z,100392.61
2018-09-12T19:12:57.746Z,100399.69
2018-09-12T19:15:26.712Z,100397.22
2018-09-12T19:17:55.733Z,100395.48
2018-09-12T19:20:24.753Z,100399.48
2018-09-12T19:22:53.855Z,100393.14
2018-09-12T19:25:22.890Z,100392.03
2018-09-12T19:27:51.840Z,100391.23
2018-09-12T19:30:20.875Z,100394.48
2018-09-12T19:32:49.908Z,100396.50
2018-09-12T19:35:18.889Z,100395.45
2018-09-12T19:37:47.827Z,100388.67
2018-09-12T19:40:16.843Z,100395.80
2018-09-12T19:42:45.775Z,100393.63
2018-09-12T19:45:14.805Z,100388.73
2018-09-12T19:47:43.777Z,100390.19
2018-09-12T19:50:12.727Z,100391.05
2018-09-12T19:52:41.764Z,100391.56
2018-09-12T19:55:10.943Z,100396.70
2018-09-12T19:57:39.979Z,100388.53
2018-09-12T20:00:14.651Z,100385.19
2018-09-12T20:02:43.693Z,100385.08
2018-09-12T20:05:12.825Z,100388.76
2018-09-12T20:07:41.853Z,100385.72
2018-09-12T20:10:10.845Z,100386.45
2018-09-12T20:12:39.930Z,100387.70
2018-09-12T20:15:09.037Z,100392.73
2018-09-12T20:17:38.109Z,100396.70
2018-09-12T20:20:07.108Z,100403.61
2018-09-12T20:22:36.117Z,100404.64
2018-09-12T20:25:05.129Z,100400.55
2018-09-12T20:27:34.148Z,100392.11
2018-09-12T20:30:03.248Z,100401.62
2018-09-12T20:32:32.408Z,100395.22
2018-09-12T20:35:01.412Z,100398.58
2018-09-12T20:37:30.387Z,100400.39
2018-09-12T20:39:59.393Z,100406.55
2018-09-12T20:42:28.401Z,100400.90
2018-09-12T20:44:57.354Z,100395.88
2018-09-12T20:47:26.346Z,100395.66
2018-09-12T20:49:55.288Z,100389.67
2018-09-12T20:52:24.340Z,100391.57
2018-09-12T20:54:53.372Z,100387.50
2018-09-12T20:57:22.416Z,100391.16
2018-09-12T20:59:51.455Z,100392.20
2018-09-12T21:02:20.404Z,100394.19
2018-09-12T21:04:49.357Z,100388.98
2018-09-12T21:07:18.326Z,100385.72
2018-09-12T21:09:47.359Z,100384.87
2018-09-12T21:12:16.334Z,100379.11
2018-09-12T21:14:45.401Z,100376.39
2018-09-12T21:17:14.338Z,100372.44
2018-09-12T21:19:43.280Z,100372.34
2018-09-12T21:22:12.300Z,100374.42
2018-09-12T21:24:41.241Z,100374.31
2018-09-12T21:27:10.243Z,100374.12
2018-09-12T21:29:39.265Z,100369.53
2018-09-12T21:32:08.219Z,100365.86
2018-09-12T21:34:37.208Z,100364.19
2018-09-12T21:37:06.487Z,100363.34
2018-09-12T21:39:35.507Z,100362.19
2018-09-12T21:42:04.475Z,100357.27
2018-09-12T21:44:33.424Z,100354.16
2018-09-12T21:47:02.371Z,100354.24
2018-09-12T21:49:31.328Z,100352.45
2018-09-12T21:52:00.290Z,100349.66
2018-09-12T21:54:29.315Z,100344.82
2018-09-12T21:56:58.337Z,100335.44
2018-09-12T21:59:27.300Z,100333.13
2018-09-12T22:01:56.269Z,100340.43
2018-09-12T22:04:25.220Z,100337.59
2018-09-12T22:06:54.211Z,100346.23
2018-09-12T22:09:23.253Z,100345.98
2018-09-12T22:11:52.215Z,100345.54
2018-09-12T22:14:21.147Z,100343.02
2018-09-12T22:16:50.213Z,100343.41
2018-09-12T22:19:19.167Z,100341.77
2018-09-12T22:21:48.112Z,100337.98
2018-09-12T22:24:17.083Z,100334.55
2018-09-12T22:26:46.179Z,100336.03
2018-09-12T22:29:15.212Z,100336.55
2018-09-12T22:31:44.167Z,100337.91
2018-09-12T22:34:13.158Z,100339.05
2018-09-12T22:36:42.115Z,100338.61
2018-09-12T22:39:11.972Z,100333.78
2018-09-12T22:41:41.304Z,100329.62
2018-09-12T22:44:10.316Z,100331.89
2018-09-12T22:46:39.334Z,100334.39
2018-09-12T22:49:08.364Z,100332.39
2018-09-12T22:51:37.462Z,100328.32
2018-09-12T22:54:06.510Z,100332.27
2018-09-12T22:56:35.497Z,100328.82
2018-09-12T22:59:04.496Z,100328.18
2018-09-12T23:01:33.583Z,100327.22
2018-09-12T23:04:02.515Z,100321.47
2018-09-12T23:06:31.516Z,100312.99
2018-09-12T23:09:00.593Z,100318.39
2018-09-12T23:11:29.545Z,100312.91
2018-09-12T23:13:58.513Z,100315.86
2018-09-12T23:16:27.460Z,100313.53
2018-09-12T23:18:56.424Z,100321.22
2018-09-12T23:21:25.414Z,100311.21
2018-09-12T23:23:54.378Z,100311.63
2018-09-12T23:26:23.317Z,100313.89
2018-09-12T23:28:52.388Z,100314.48
2018-09-12T23:31:21.348Z,100309.48
2018-09-12T23:33:50.308Z,100316.09
2018-09-12T23:36:19.298Z,100312.94
2018-09-12T23:38:48.269Z,100318.13
2018-09-12T23:41:17.222Z,100323.09
2018-09-12T23:43:46.237Z,100325.61
2018-09-12T23:46:15.199Z,100324.97
2018-09-12T23:48:44.161Z,100322.25
2018-09-12T23:51:13.320Z,100323.61
2018-09-12T23:53:42.268Z,100323.94
2018-09-12T23:56:11.245Z,100320.90
2018-09-12T23:58:40.200Z,100310.28
